Time;durP1;ratioP1;P1;durP2;ratioP2;P2;SDS_P1;SDS_P2;PMS_P1;PMS_P2;Temp;Humidity;BMP_temperature;BMP_pressure;BME280_temperature;BME280_humidity;BME280_pressure;Samples;Min_cycle;Max_cycle;Signal;HPM_P1;HPM_P2
2023/06/10 00:01:30;;;;;;;22.75;10.52;;;;;;;-142.57;100.00;115900.28;5031962;28;20080;-81
2023/06/10 00:03:55;;;;;;;27.55;10.52;;;;;;;-142.57;100.00;115900.28;5031894;28;20052;-79
2023/06/10 00:06:24;;;;;;;23.30;10.35;;;;;;;-142.57;100.00;115900.28;5031820;28;20030;-80
2023/06/10 00:08:50;;;;;;;16.00;10.20;;;;;;;-142.57;100.00;115900.28;5032126;28;20041;-81
2023/06/10 00:11:16;;;;;;;21.23;11.02;;;;;;;-142.57;100.00;115900.28;5030281;28;20044;-81
2023/06/10 00:13:41;;;;;;;15.82;9.50;;;;;;;-142.57;100.00;115900.28;5032053;28;20033;-79
2023/06/10 00:16:08;;;;;;;25.77;9.57;;;;;;;-142.57;100.00;115900.28;5031800;28;20116;-80
2023/06/10 00:18:36;;;;;;;20.02;9.57;;;;;;;-142.57;100.00;115900.28;5031834;28;20526;-81
2023/06/10 00:21:04;;;;;;;17.27;8.75;;;;;;;-142.57;100.00;115900.28;5031427;28;20037;-80
2023/06/10 00:23:30;;;;;;;16.70;9.48;;;;;;;-142.57;100.00;115900.28;5031655;28;20065;-79
2023/06/10 00:25:58;;;;;;;18.45;9.80;;;;;;;-142.57;100.00;115900.28;5031906;28;20055;-79
2023/06/10 00:28:24;;;;;;;19.65;9.50;;;;;;;-142.57;100.00;115900.28;5032319;28;20470;-79
2023/06/10 00:30:49;;;;;;;24.20;9.88;;;;;;;-142.57;100.00;115900.28;5031945;28;20076;-79
2023/06/10 00:33:15;;;;;;;17.42;8.93;;;;;;;-142.57;100.00;115900.28;5030234;28;20099;-81
2023/06/10 00:35:41;;;;;;;19.40;8.88;;;;;;;-142.57;100.00;115900.28;5035391;28;20078;-78
2023/06/10 00:38:06;;;;;;;16.98;8.73;;;;;;;-142.57;100.00;115900.28;5035903;28;20124;-79
2023/06/10 00:40:38;;;;;;;15.80;8.10;;;;;;;-142.57;100.00;115900.28;5034183;28;20120;-80
2023/06/10 00:43:04;;;;;;;18.20;7.72;;;;;;;-142.57;100.00;115900.28;5036398;28;20080;-81
2023/06/10 00:45:29;;;;;;;17.55;7.38;;;;;;;-142.57;100.00;115900.28;5038132;28;20482;-82
2023/06/10 00:47:57;;;;;;;15.55;7.95;;;;;;;-142.57;100.00;115900.28;5040745;28;20049;-81
2023/06/10 00:50:23;;;;;;;16.52;8.68;;;;;;;-142.57;100.00;115900.28;5037948;28;20071;-80
2023/06/10 00:52:51;;;;;;;16.83;8.27;;;;;;;-142.57;100.00;115900.28;5034340;28;20037;-81
2023/06/10 00:55:17;;;;;;;18.70;7.88;;;;;;;-142.57;100.00;115900.28;5035306;28;20037;-81
2023/06/10 00:57:45;;;;;;;20.60;8.55;;;;;;;-142.57;100.00;115900.28;5038380;28;20033;-79
2023/06/10 01:00:12;;;;;;;16.13;8.02;;;;;;;-142.57;100.00;115900.28;5041863;28;20037;-80
2023/06/10 01:02:38;;;;;;;18.67;7.60;;;;;;;-142.57;100.00;115900.28;5040122;28;20036;-81
2023/06/10 01:05:05;;;;;;;18.38;7.57;;;;;;;-142.57;100.00;115900.28;5044107;28;20049;-80
2023/06/10 01:07:48;;;;;;;20.40;6.80;;;;;;;-142.57;100.00;115900.28;5045161;28;20025;-80
2023/06/10 01:10:30;;;;;;;13.48;6.40;;;;;;;-142.57;100.00;115900.28;5045900;28;20099;-80
2023/06/10 01:13:02;;;;;;;14.20;5.50;;;;;;;-142.57;100.00;115900.28;5045329;28;20033;-80
2023/06/10 01:15:31;;;;;;;13.15;5.03;;;;;;;-142.57;100.00;115900.28;5041883;28;20041;-79
2023/06/10 01:18:04;;;;;;;12.93;5.38;;;;;;;-142.57;100.00;115900.28;5040759;28;20037;-79
2023/06/10 01:20:32;;;;;;;11.35;4.78;;;;;;;-142.57;100.00;115900.28;5046007;28;20111;-79
2023/06/10 01:22:59;;;;;;;12.05;4.13;;;;;;;-142.57;100.00;115900.28;5044784;28;20029;-80
2023/06/10 01:25:32;;;;;;;12.10;4.32;;;;;;;-142.57;100.00;115900.28;5049627;28;20049;-79
2023/06/10 01:28:17;;;;;;;21.42;4.78;;;;;;;-142.57;100.00;115900.28;5041589;28;20067;-80
2023/06/10 01:31:00;;;;;;;8.77;4.03;;;;;;;-142.57;100.00;115900.28;5039990;28;20083;-81
2023/06/10 01:33:29;;;;;;;12.77;4.22;;;;;;;-142.57;100.00;115900.28;5034261;28;20037;-83
2023/06/10 01:35:58;;;;;;;11.90;4.35;;;;;;;-142.57;100.00;115900.28;5035224;28;20120;-82
2023/06/10 01:38:26;;;;;;;12.23;3.90;;;;;;;-142.57;100.00;115900.28;5034163;28;20398;-79
2023/06/10 01:40:55;;;;;;;8.63;3.63;;;;;;;-142.57;100.00;115900.28;5034048;28;20029;-81
2023/06/10 01:43:21;;;;;;;10.10;3.55;;;;;;;-142.57;100.00;115900.28;5033029;28;20036;-78
2023/06/10 01:45:47;;;;;;;12.07;3.30;;;;;;;-142.57;100.00;115900.28;5034709;28;20038;-80
2023/06/10 01:48:12;;;;;;;8.88;3.30;;;;;;;-142.57;100.00;115900.28;5033537;28;20059;-80
2023/06/10 01:50:38;;;;;;;11.48;2.65;;;;;;;-142.57;100.00;115900.28;5034954;28;20018;-80
2023/06/10 01:53:05;;;;;;;9.45;3.72;;;;;;;-142.57;100.00;115900.28;5034936;28;20095;-81
2023/06/10 01:55:31;;;;;;;14.00;3.35;;;;;;;-142.57;100.00;115900.28;5034080;28;20143;-81
2023/06/10 01:57:57;;;;;;;16.02;3.53;;;;;;;-142.57;100.00;115900.28;5033220;28;20092;-81
2023/06/10 02:00:23;;;;;;;17.80;3.58;;;;;;;-142.57;100.00;115900.28;5033073;28;20033;-81
2023/06/10 02:02:48;;;;;;;15.07;3.97;;;;;;;-142.57;100.00;115900.28;5033293;28;20042;-79
2023/06/10 02:05:15;;;;;;;9.68;3.72;;;;;;;-142.57;100.00;115900.28;5033908;28;20040;-80
2023/06/10 02:07:41;;;;;;;8.13;3.45;;;;;;;-142.57;100.00;115900.28;5036141;28;20044;-81
2023/06/10 02:10:07;;;;;;;12.57;3.53;;;;;;;-142.57;100.00;115900.28;5038524;28;20033;-80
2023/06/10 02:12:33;;;;;;;7.50;3.28;;;;;;;-142.57;100.00;115900.28;5034915;28;20030;-79
2023/06/10 02:14:58;;;;;;;7.55;2.78;;;;;;;-142.57;100.00;115900.28;5033792;28;20409;-80
2023/06/10 02:17:24;;;;;;;9.85;3.50;;;;;;;-142.57;100.00;115900.28;5033889;28;20143;-79
2023/06/10 02:19:52;;;;;;;11.00;3.20;;;;;;;-142.57;100.00;115900.28;5034711;28;20120;-79
2023/06/10 02:22:21;;;;;;;6.28;2.90;;;;;;;-142.57;100.00;115900.28;5034295;28;20111;-80
2023/06/10 02:24:47;;;;;;;10.40;4.03;;;;;;;-142.57;100.00;115900.28;5033608;28;20073;-80
2023/06/10 02:27:13;;;;;;;9.73;3.20;;;;;;;-142.57;100.00;115900.28;5016357;28;20477;-80
2023/06/10 02:29:38;;;;;;;9.02;3.55;;;;;;;-142.57;100.00;115900.28;5032497;28;20155;-80
2023/06/10 02:32:05;;;;;;;7.82;3.40;;;;;;;-142.57;100.00;115900.28;5032127;28;20046;-79
2023/06/10 02:34:30;;;;;;;10.95;3.38;;;;;;;-142.57;100.00;115900.28;5031308;28;20593;-80
2023/06/10 02:36:57;;;;;;;13.57;3.70;;;;;;;-142.57;100.00;115900.28;5032348;28;20071;-81
2023/06/10 02:39:23;;;;;;;11.43;3.38;;;;;;;-142.57;100.00;115900.28;5031963;28;20034;-81
2023/06/10 02:41:49;;;;;;;10.38;3.45;;;;;;;-142.57;100.00;115900.28;5032483;28;20091;-80
2023/06/10 02:44:18;;;;;;;9.48;3.33;;;;;;;-142.57;100.00;115900.28;5032336;28;20029;-81
2023/06/10 02:46:44;;;;;;;13.57;3.83;;;;;;;-142.57;100.00;115900.28;5031956;28;20029;-80
2023/06/10 02:49:11;;;;;;;11.20;3.53;;;;;;;-142.57;100.00;115900.28;5034115;28;20021;-80
2023/06/10 02:51:37;;;;;;;12.25;3.38;;;;;;;-142.57;100.00;115900.28;5031800;28;20040;-79
2023/06/10 02:54:03;;;;;;;15.18;3.83;;;;;;;-142.57;100.00;115900.28;5015099;28;20036;-79
2023/06/10 02:56:29;;;;;;;12.40;4.05;;;;;;;-142.57;100.00;115900.28;5026301;28;20047;-80
2023/06/10 02:58:58;;;;;;;15.43;3.80;;;;;;;-142.57;100.00;115900.28;5027717;28;20040;-79
2023/06/10 03:01:25;;;;;;;16.48;3.97;;;;;;;-142.57;100.00;115900.28;5031185;28;20037;-81
2023/06/10 03:04:07;;;;;;;8.95;3.83;;;;;;;-142.57;100.00;115900.28;5031249;28;20080;-81
2023/06/10 03:06:35;;;;;;;11.18;4.10;;;;;;;-142.57;100.00;115900.28;5031013;28;20041;-79
2023/06/10 03:09:11;;;;;;;9.07;3.53;;;;;;;-142.57;100.00;115900.28;5031592;28;20513;-79
2023/06/10 03:11:38;;;;;;;10.52;2.78;;;;;;;-142.57;100.00;115900.28;5031902;28;20037;-81
2023/06/10 03:14:04;;;;;;;15.32;3.78;;;;;;;-142.57;100.00;115900.28;5032106;28;20528;-80
2023/06/10 03:16:31;;;;;;;11.88;3.55;;;;;;;-142.57;100.00;115900.28;5031779;28;20041;-80
2023/06/10 03:18:57;;;;;;;10.52;3.03;;;;;;;-142.57;100.00;115900.28;5038977;28;20052;-80
2023/06/10 03:21:22;;;;;;;12.88;3.45;;;;;;;-142.57;100.00;115900.28;5042367;28;20463;-80
2023/06/10 03:23:48;;;;;;;15.85;3.88;;;;;;;-142.57;100.00;115900.28;5036820;28;20167;-79
2023/06/10 03:26:14;;;;;;;10.63;3.20;;;;;;;-142.57;100.00;115900.28;5036057;28;20026;-79
2023/06/10 03:28:42;;;;;;;15.00;3.60;;;;;;;-142.57;100.00;115900.28;5037342;28;20038;-81
2023/06/10 03:31:08;;;;;;;10.68;3.50;;;;;;;-142.57;100.00;115900.28;5037592;28;20107;-82
2023/06/10 03:33:34;;;;;;;14.73;3.58;;;;;;;-142.57;100.00;115900.28;5034374;28;20033;-80
2023/06/10 03:36:00;;;;;;;10.23;3.40;;;;;;;-142.57;100.00;115900.28;5033236;28;20029;-80
2023/06/10 03:38:26;;;;;;;8.43;3.30;;;;;;;-142.57;100.00;115900.28;5032154;28;20029;-80
2023/06/10 03:40:53;;;;;;;11.07;3.63;;;;;;;-142.57;100.00;115900.28;5031644;28;20141;-79
2023/06/10 03:43:18;;;;;;;9.68;3.20;;;;;;;-142.57;100.00;115900.28;5031101;28;20465;-80
2023/06/10 03:45:44;;;;;;;8.38;3.55;;;;;;;-142.57;100.00;115900.28;5031942;28;20029;-79
2023/06/10 03:48:10;;;;;;;8.85;3.67;;;;;;;-142.57;100.00;115900.28;5032041;28;20033;-83
2023/06/10 03:50:46;;;;;;;8.48;3.42;;;;;;;-142.57;100.00;115900.28;5032141;28;20465;-82
2023/06/10 03:53:11;;;;;;;15.25;3.65;;;;;;;-142.57;100.00;115900.28;5031917;28;20479;-79
2023/06/10 03:55:40;;;;;;;15.18;3.67;;;;;;;-142.57;100.00;115900.28;5031509;28;20038;-80
2023/06/10 03:58:06;;;;;;;11.23;3.78;;;;;;;-142.57;100.00;115900.28;5032119;28;20467;-80
2023/06/10 04:00:40;;;;;;;8.95;4.03;;;;;;;-142.57;100.00;115900.28;5032939;28;20032;-81
2023/06/10 04:03:08;;;;;;;13.15;3.55;;;;;;;-142.57;100.00;115900.28;5033435;28;20068;-80
2023/06/10 04:05:37;;;;;;;6.43;3.20;;;;;;;-142.57;100.00;115900.28;5031631;28;20716;-80
2023/06/10 04:08:03;;;;;;;11.20;4.13;;;;;;;-142.57;100.00;115900.28;5031407;28;20041;-81
2023/06/10 04:10:28;;;;;;;13.55;3.67;;;;;;;-142.57;100.00;115900.28;5035523;28;20029;-80
2023/06/10 04:12:54;;;;;;;11.02;3.83;;;;;;;-142.57;100.00;115900.28;5035189;28;20021;-80
2023/06/10 04:15:21;;;;;;;9.60;3.55;;;;;;;-142.57;100.00;115900.28;5034781;28;20040;-80
2023/06/10 04:17:46;;;;;;;12.00;3.70;;;;;;;-142.57;100.00;115900.28;5035510;28;20398;-80
2023/06/10 04:20:12;;;;;;;16.52;4.03;;;;;;;-142.57;100.00;115900.28;5035896;28;20049;-80
2023/06/10 04:22:41;;;;;;;6.70;3.58;;;;;;;-142.57;100.00;115900.28;5035442;28;20505;-80
2023/06/10 04:25:08;;;;;;;13.52;3.90;;;;;;;-142.57;100.00;115900.28;5035554;28;20041;-82
2023/06/10 04:27:34;;;;;;;7.63;3.85;;;;;;;-142.57;100.00;115900.28;5035694;28;20038;-81
2023/06/10 04:30:00;;;;;;;10.00;3.20;;;;;;;-142.57;100.00;115900.28;5035679;28;20132;-79
2023/06/10 04:32:26;;;;;;;12.50;3.50;;;;;;;-142.57;100.00;115900.28;5036589;28;20099;-82
2023/06/10 04:34:52;;;;;;;8.52;3.03;;;;;;;-142.57;100.00;115900.28;5035405;28;20485;-81
2023/06/10 04:37:18;;;;;;;6.65;2.92;;;;;;;-142.57;100.00;115900.28;5034845;28;20029;-79
2023/06/10 04:39:43;;;;;;;11.50;3.20;;;;;;;-142.57;100.00;115900.28;5036570;28;20029;-80
2023/06/10 04:42:10;;;;;;;7.28;3.47;;;;;;;-142.57;100.00;115900.28;5035390;28;20034;-82
2023/06/10 04:44:38;;;;;;;9.95;3.45;;;;;;;-142.57;100.00;115900.28;5034857;28;20042;-82
2023/06/10 04:47:04;;;;;;;8.25;3.60;;;;;;;-142.57;100.00;115900.28;5038159;28;20029;-81
2023/06/10 04:49:30;;;;;;;10.75;3.92;;;;;;;-142.57;100.00;115900.28;5040677;28;20034;-80
2023/06/10 04:51:55;;;;;;;9.10;3.85;;;;;;;-142.57;100.00;115900.28;5041244;28;20041;-81
2023/06/10 04:54:21;;;;;;;7.95;3.50;;;;;;;-142.57;100.00;115900.28;5020302;28;20081;-82
2023/06/10 04:56:46;;;;;;;8.07;3.63;;;;;;;-142.57;100.00;115900.28;5035857;28;20029;-81
2023/06/10 04:59:14;;;;;;;8.63;3.92;;;;;;;-142.57;100.00;115900.28;5035431;28;20065;-81
2023/06/10 05:01:39;;;;;;;10.82;4.40;;;;;;;-142.57;100.00;115900.28;5036240;28;20033;-82
2023/06/10 05:04:05;;;;;;;11.68;4.18;;;;;;;-142.57;100.00;115900.28;5038406;28;20038;-80
2023/06/10 05:06:30;;;;;;;12.77;3.60;;;;;;;-142.57;100.00;115900.28;5040642;28;20041;-85
2023/06/10 05:08:56;;;;;;;9.63;3.80;;;;;;;-142.57;100.00;115900.28;5039786;28;20163;-80
2023/06/10 05:11:22;;;;;;;9.52;3.75;;;;;;;-142.57;100.00;115900.28;5041841;28;20055;-81
2023/06/10 05:13:48;;;;;;;10.13;3.58;;;;;;;-142.57;100.00;115900.28;5042869;28;20105;-84
2023/06/10 05:16:15;;;;;;;11.32;3.97;;;;;;;-142.57;100.00;115900.28;5039152;28;20045;-85
2023/06/10 05:18:40;;;;;;;9.80;4.75;;;;;;;-142.57;100.00;115900.28;5037801;28;20429;-85
2023/06/10 05:21:07;;;;;;;10.25;4.47;;;;;;;-142.57;100.00;115900.28;5036152;28;20036;-82
2023/06/10 05:23:32;;;;;;;7.78;4.85;;;;;;;-142.57;100.00;115900.28;5038305;28;20064;-82
2023/06/10 05:25:59;;;;;;;10.45;4.68;;;;;;;-142.57;100.00;115900.28;5039769;28;20048;-86
2023/06/10 05:28:28;;;;;;;15.15;5.25;;;;;;;-142.57;100.00;115900.28;5037856;28;20033;-85
2023/06/10 05:30:53;;;;;;;10.02;5.20;;;;;;;-142.57;100.00;115900.28;5037929;28;20518;-85
2023/06/10 05:33:19;;;;;;;12.80;5.38;;;;;;;-142.57;100.00;115900.28;5037389;28;20133;-82
2023/06/10 05:35:45;;;;;;;7.88;5.60;;;;;;;-142.57;100.00;115900.28;5038516;28;20502;-85
2023/06/10 05:38:10;;;;;;;9.18;5.70;;;;;;;-142.57;100.00;115900.28;5038624;28;20033;-84
2023/06/10 05:40:36;;;;;;;13.38;5.10;;;;;;;-142.57;100.00;115900.28;5038316;28;20045;-85
2023/06/10 05:43:01;;;;;;;11.02;5.35;;;;;;;-142.57;100.00;115900.28;5019617;28;20044;-85
2023/06/10 05:45:27;;;;;;;9.05;5.43;;;;;;;-142.57;100.00;115900.28;5040569;28;20026;-87
2023/06/10 05:47:53;;;;;;;12.05;5.10;;;;;;;-142.57;100.00;115900.28;5042951;28;20391;-87
2023/06/10 05:50:20;;;;;;;11.60;4.65;;;;;;;-142.57;100.00;115900.28;5052725;28;20037;-82
2023/06/10 05:52:45;;;;;;;7.70;4.72;;;;;;;-142.57;100.00;115900.28;5053048;28;20029;-88
2023/06/10 05:55:11;;;;;;;14.43;5.18;;;;;;;-142.57;100.00;115900.28;5043177;28;20461;-85
2023/06/10 05:57:37;;;;;;;14.73;5.32;;;;;;;-142.57;100.00;115900.28;5042143;28;20025;-82
2023/06/10 06:00:03;;;;;;;9.82;5.68;;;;;;;-142.57;100.00;115900.28;5042447;28;20034;-83
2023/06/10 06:02:48;;;;;;;11.30;5.60;;;;;;;-142.57;100.00;115900.28;5047301;28;20080;-89
2023/06/10 06:05:17;;;;;;;15.90;5.88;;;;;;;-142.57;100.00;115900.28;5047518;28;20033;-88
2023/06/10 06:07:43;;;;;;;14.15;5.45;;;;;;;-142.57;100.00;115900.28;5047565;28;20037;-84
2023/06/10 06:10:10;;;;;;;9.48;4.47;;;;;;;-142.57;100.00;115900.28;5048125;28;20040;-87
2023/06/10 06:12:39;;;;;;;11.98;5.05;;;;;;;-142.57;100.00;115900.28;5047021;28;20029;-84
2023/06/10 06:15:25;;;;;;;12.32;4.97;;;;;;;-142.57;100.00;115900.28;5049375;28;20041;-91
2023/06/10 06:17:53;;;;;;;14.82;5.00;;;;;;;-142.57;100.00;115900.28;5019987;28;20050;-85
2023/06/10 06:20:26;;;;;;;13.32;5.82;;;;;;;-142.57;100.00;115900.28;5032862;28;20040;-88
2023/06/10 06:22:58;;;;;;;12.45;5.55;;;;;;;-142.57;100.00;115900.28;5034791;28;20114;-86
2023/06/10 06:25:47;;;;;;;11.13;5.22;;;;;;;-142.57;100.00;115900.28;5018580;28;20036;-84
2023/06/10 06:28:43;;;;;;;9.35;5.18;;;;;;;-142.57;100.00;115900.28;5048134;28;20038;-86
2023/06/10 06:31:18;;;;;;;9.38;5.05;;;;;;;-142.57;100.00;115900.28;5056428;28;20048;-90
2023/06/10 06:33:51;;;;;;;10.50;5.53;;;;;;;-142.57;100.00;115900.28;5056935;28;20037;-88
2023/06/10 06:38:59;;;;;;;8.02;2.90;;;;;;;-142.57;100.00;115900.28;4970067;26;20037;-83
2023/06/10 06:41:28;;;;;;;4.13;2.80;;;;;;;-142.57;100.00;115900.28;5031239;28;20091;-87
2023/06/10 06:44:23;;;;;;;7.72;3.33;;;;;;;-142.57;100.00;115900.28;5042604;28;20133;-85
2023/06/10 06:47:01;;;;;;;9.55;3.53;;;;;;;-142.57;100.00;115900.28;5037868;28;20053;-83
2023/06/10 06:49:37;;;;;;;6.70;3.42;;;;;;;-142.57;100.00;115900.28;5033053;28;20470;-84
2023/06/10 06:52:09;;;;;;;5.97;3.55;;;;;;;-142.57;100.00;115900.28;5054880;28;20385;-85
2023/06/10 06:54:39;;;;;;;11.15;3.47;;;;;;;-142.57;100.00;115900.28;5057863;28;20049;-86
2023/06/10 06:57:08;;;;;;;6.78;3.72;;;;;;;-142.57;100.00;115900.28;5065330;28;20044;-85
2023/06/10 06:59:35;;;;;;;5.88;3.03;;;;;;;-142.57;100.00;115900.28;5068572;28;20045;-84
2023/06/10 07:02:04;;;;;;;9.55;3.28;;;;;;;-142.57;100.00;115900.28;5057362;28;20128;-87
2023/06/10 07:04:42;;;;;;;6.75;3.10;;;;;;;-142.57;100.00;115900.28;5088466;28;20063;-86
2023/06/10 07:07:22;;;;;;;7.07;3.83;;;;;;;-142.57;100.00;115900.28;5067817;28;20044;-83
2023/06/10 07:09:47;;;;;;;11.43;4.30;;;;;;;-142.57;100.00;115900.28;5050557;28;20047;-84
2023/06/10 07:12:13;;;;;;;10.65;4.22;;;;;;;-142.57;100.00;115900.28;5053381;28;20124;-84
2023/06/10 07:15:04;;;;;;;8.23;3.95;;;;;;;-142.57;100.00;115900.28;5054401;28;20116;-85
2023/06/10 07:17:31;;;;;;;19.40;4.40;;;;;;;-142.57;100.00;115900.28;5048018;28;20054;-87
2023/06/10 07:20:02;;;;;;;10.65;4.35;;;;;;;-142.57;100.00;115900.28;5055070;28;20037;-87
2023/06/10 07:22:48;;;;;;;13.00;3.53;;;;;;;-142.57;100.00;115900.28;5055926;28;20033;-84
2023/06/10 07:29:12;;;;;;;10.52;4.72;;;;;;;-142.57;100.00;115900.28;5056462;28;20056;-86
2023/06/10 07:31:44;;;;;;;8.63;4.55;;;;;;;-142.57;100.00;115900.28;5055652;28;20046;-87
2023/06/10 07:34:38;;;;;;;11.18;4.90;;;;;;;-142.57;100.00;115900.28;5055299;28;20025;-85
2023/06/10 07:37:13;;;;;;;9.50;4.95;;;;;;;-142.57;100.00;115900.28;5039691;28;20111;-83
2023/06/10 07:39:38;;;;;;;10.35;5.25;;;;;;;-142.57;100.00;115900.28;5039582;28;20037;-85
2023/06/10 07:42:07;;;;;;;7.82;5.00;;;;;;;-142.57;100.00;115900.28;5043614;28;20077;-86
2023/06/10 07:44:43;;;;;;;9.98;5.32;;;;;;;-142.57;100.00;115900.28;5052721;28;20063;-84
2023/06/10 07:47:10;;;;;;;8.38;4.88;;;;;;;-142.57;100.00;115900.28;5033296;28;20095;-86
2023/06/10 07:49:35;;;;;;;9.15;5.32;;;;;;;-142.57;100.00;115900.28;5028595;28;20026;-83
2023/06/10 07:52:04;;;;;;;7.25;4.45;;;;;;;-142.57;100.00;115900.28;5043111;28;20037;-81
2023/06/10 07:54:32;;;;;;;9.10;4.47;;;;;;;-142.57;100.00;115900.28;5048240;28;20034;-86
2023/06/10 07:57:04;;;;;;;8.32;4.13;;;;;;;-142.57;100.00;115900.28;5056363;28;20018;-83
2023/06/10 07:59:48;;;;;;;10.25;4.30;;;;;;;-142.57;100.00;115900.28;5037711;28;20064;-83
2023/06/10 08:02:38;;;;;;;9.13;4.47;;;;;;;-142.57;100.00;115900.28;5034919;28;20125;-89
2023/06/10 08:05:07;;;;;;;9.50;4.15;;;;;;;-142.57;100.00;115900.28;5032311;28;20050;-84
2023/06/10 08:07:58;;;;;;;8.10;4.05;;;;;;;-142.57;100.00;115900.28;5032212;28;20050;-84
2023/06/10 08:10:24;;;;;;;8.20;5.05;;;;;;;-142.57;100.00;115900.28;5034299;28;20038;-85
2023/06/10 08:12:50;;;;;;;7.05;4.43;;;;;;;-142.57;100.00;115900.28;5036566;28;20055;-82
2023/06/10 08:15:44;;;;;;;8.70;4.32;;;;;;;-142.57;100.00;115900.28;5050889;28;20050;-84
2023/06/10 08:18:09;;;;;;;10.10;4.90;;;;;;;-142.57;100.00;115900.28;5053655;28;20033;-84
2023/06/10 08:20:38;;;;;;;9.95;5.68;;;;;;;-142.57;100.00;115900.28;5027759;28;20044;-85
2023/06/10 08:23:04;;;;;;;8.73;4.07;;;;;;;-142.57;100.00;115900.28;5060409;28;20049;-84
2023/06/10 08:25:34;;;;;;;8.93;4.03;;;;;;;-142.57;100.00;115900.28;5065966;28;20040;-84
2023/06/10 08:28:05;;;;;;;7.78;3.85;;;;;;;-142.57;100.00;115900.28;5065460;28;20029;-86
2023/06/10 08:30:34;;;;;;;6.28;3.83;;;;;;;-142.57;100.00;115900.28;5064541;28;20028;-84
2023/06/10 08:33:01;;;;;;;6.68;4.22;;;;;;;-142.57;100.00;115900.28;5045908;28;20030;-84
2023/06/10 08:35:27;;;;;;;9.82;4.00;;;;;;;-142.57;100.00;115900.28;5047380;28;20030;-84
2023/06/10 08:37:56;;;;;;;6.75;3.33;;;;;;;-142.57;100.00;115900.28;5023930;28;20042;-85
2023/06/10 08:40:24;;;;;;;8.50;3.60;;;;;;;-142.57;100.00;115900.28;5032061;28;20018;-85
2023/06/10 08:43:08;;;;;;;9.98;4.20;;;;;;;-142.57;100.00;115900.28;5018011;28;20042;-84
2023/06/10 08:45:37;;;;;;;15.00;3.45;;;;;;;-142.57;100.00;115900.28;5046167;28;20076;-85
2023/06/10 08:48:11;;;;;;;10.52;4.10;;;;;;;-142.57;100.00;115900.28;5029254;28;20061;-84
2023/06/10 08:50:51;;;;;;;10.52;4.65;;;;;;;-142.57;100.00;115900.28;5015782;28;20073;-86
2023/06/10 08:53:19;;;;;;;7.68;4.15;;;;;;;-142.57;100.00;115900.28;5045345;28;20026;-84
2023/06/10 08:55:54;;;;;;;8.68;4.60;;;;;;;-142.57;100.00;115900.28;5045394;28;20037;-85
2023/06/10 08:58:24;;;;;;;8.50;4.25;;;;;;;-142.57;100.00;115900.28;5048520;28;20036;-86
2023/06/10 09:00:54;;;;;;;13.77;5.00;;;;;;;-142.57;100.00;115900.28;5047375;28;20069;-83
2023/06/10 09:03:20;;;;;;;9.70;3.58;;;;;;;-142.57;100.00;115900.28;5043138;28;20040;-85
2023/06/10 09:05:49;;;;;;;7.35;3.55;;;;;;;-142.57;100.00;115900.28;5040631;28;20129;-85
2023/06/10 09:08:16;;;;;;;12.43;3.22;;;;;;;-142.57;100.00;115900.28;5043193;28;20359;-84
2023/06/10 09:10:45;;;;;;;12.00;2.58;;;;;;;-142.57;100.00;115900.28;5043079;28;20048;-86
2023/06/10 09:13:15;;;;;;;6.63;2.30;;;;;;;-142.57;100.00;115900.28;5042224;28;20046;-86
2023/06/10 09:15:41;;;;;;;7.00;2.28;;;;;;;-142.57;100.00;115900.28;5031393;28;20145;-85
2023/06/10 09:18:11;;;;;;;6.93;2.10;;;;;;;-142.57;100.00;115900.28;5034064;28;20045;-85
2023/06/10 09:20:41;;;;;;;3.10;1.92;;;;;;;-142.57;100.00;115900.28;5044661;28;20033;-86
2023/06/10 09:23:07;;;;;;;8.63;2.00;;;;;;;-142.57;100.00;115900.28;5042437;28;20030;-87
2023/06/10 09:25:39;;;;;;;8.85;2.38;;;;;;;-142.57;100.00;115900.28;5046473;28;20056;-85
2023/06/10 09:28:17;;;;;;;3.88;2.08;;;;;;;-142.57;100.00;115900.28;5046736;28;20037;-86
2023/06/10 09:30:48;;;;;;;7.13;2.03;;;;;;;-142.57;100.00;115900.28;5041331;28;20029;-85
2023/06/10 09:33:16;;;;;;;5.97;2.70;;;;;;;-142.57;100.00;115900.28;5047775;28;20044;-88
2023/06/10 09:35:47;;;;;;;7.38;2.70;;;;;;;-142.57;100.00;115900.28;5049613;28;20026;-85
2023/06/10 09:38:17;;;;;;;6.00;2.33;;;;;;;-142.57;100.00;115900.28;5049112;28;20041;-87
2023/06/10 09:40:54;;;;;;;8.77;2.83;;;;;;;-142.57;100.00;115900.28;5049980;28;20026;-85
2023/06/10 09:43:41;;;;;;;6.78;3.33;;;;;;;-142.57;100.00;115900.28;5041419;28;20432;-85
2023/06/10 09:46:15;;;;;;;6.38;2.53;;;;;;;-142.57;100.00;115900.28;5035535;28;20065;-85
2023/06/10 09:48:47;;;;;;;6.63;2.78;;;;;;;-142.57;100.00;115900.28;5021997;28;20025;-84
2023/06/10 09:51:14;;;;;;;8.52;2.92;;;;;;;-142.57;100.00;115900.28;5039999;28;20112;-86
2023/06/10 09:53:40;;;;;;;4.72;2.50;;;;;;;-142.57;100.00;115900.28;5022075;28;20026;-84
2023/06/10 09:56:06;;;;;;;5.20;2.30;;;;;;;-142.57;100.00;115900.28;5039669;28;20076;-85
2023/06/10 09:58:42;;;;;;;6.28;2.38;;;;;;;-142.57;100.00;115900.28;5039568;28;20498;-83
2023/06/10 10:01:11;;;;;;;5.78;1.95;;;;;;;-142.57;100.00;115900.28;5022475;28;20087;-84
2023/06/10 10:03:47;;;;;;;7.07;2.53;;;;;;;-142.57;100.00;115900.28;5029993;28;20029;-84
2023/06/10 10:06:15;;;;;;;6.68;2.53;;;;;;;-142.57;100.00;115900.28;5036919;28;20057;-82
2023/06/10 10:08:41;;;;;;;5.82;2.67;;;;;;;-142.57;100.00;115900.28;5039920;28;20029;-86
2023/06/10 10:11:07;;;;;;;7.90;2.70;;;;;;;-142.57;100.00;115900.28;5022491;28;20106;-83
2023/06/10 10:13:34;;;;;;;6.35;2.13;;;;;;;-142.57;100.00;115900.28;5025138;28;20510;-83
2023/06/10 10:16:04;;;;;;;11.40;2.75;;;;;;;-142.57;100.00;115900.28;5033347;28;20022;-85
2023/06/10 10:18:31;;;;;;;4.45;2.00;;;;;;;-142.57;100.00;115900.28;5035794;28;20383;-86
2023/06/10 10:21:05;;;;;;;8.32;3.13;;;;;;;-142.57;100.00;115900.28;5037213;28;20513;-88
2023/06/10 10:23:44;;;;;;;7.00;2.25;;;;;;;-142.57;100.00;115900.28;5042672;28;20029;-86
2023/06/10 10:26:11;;;;;;;6.82;2.05;;;;;;;-142.57;100.00;115900.28;5033419;28;20053;-86
2023/06/10 10:29:18;;;;;;;9.13;2.33;;;;;;;-142.57;100.00;115900.28;5033340;28;20536;-87
2023/06/10 10:31:45;;;;;;;8.95;2.45;;;;;;;-142.57;100.00;115900.28;5031918;28;20127;-83
2023/06/10 10:34:16;;;;;;;9.68;2.35;;;;;;;-142.57;100.00;115900.28;5033089;28;20474;-85
2023/06/10 10:36:44;;;;;;;8.60;2.58;;;;;;;-142.57;100.00;115900.28;5033258;28;20548;-85
2023/06/10 10:39:10;;;;;;;5.22;2.33;;;;;;;-142.57;100.00;115900.28;5041415;28;20034;-87
2023/06/10 10:41:37;;;;;;;6.32;2.03;;;;;;;-142.57;100.00;115900.28;5056504;28;20151;-86
2023/06/10 10:44:07;;;;;;;10.40;2.50;;;;;;;-142.57;100.00;115900.28;5042394;28;20048;-83
2023/06/10 10:46:43;;;;;;;7.97;2.28;;;;;;;-142.57;100.00;115900.28;5039140;28;20037;-88
2023/06/10 10:49:14;;;;;;;8.00;2.20;;;;;;;-142.57;100.00;115900.28;5030705;28;20045;-87
2023/06/10 10:51:59;;;;;;;9.82;2.28;;;;;;;-142.57;100.00;115900.28;5036155;28;20049;-86
2023/06/10 10:54:35;;;;;;;5.75;2.30;;;;;;;-142.57;100.00;115900.28;5031731;28;20052;-87
2023/06/10 10:57:20;;;;;;;3.92;2.17;;;;;;;-142.57;100.00;115900.28;5035121;28;20042;-88
2023/06/10 10:59:49;;;;;;;5.68;2.78;;;;;;;-142.57;100.00;115900.28;5038832;28;20083;-86
2023/06/10 11:02:31;;;;;;;6.38;2.70;;;;;;;-142.57;100.00;115900.28;5038705;28;20033;-86
2023/06/10 11:04:58;;;;;;;6.13;2.28;;;;;;;-142.57;100.00;115900.28;5041286;28;20091;-84
2023/06/10 11:07:30;;;;;;;8.60;2.90;;;;;;;-142.57;100.00;115900.28;5031506;28;20037;-85
2023/06/10 11:10:10;;;;;;;7.30;2.38;;;;;;;-142.57;100.00;115900.28;5027410;28;20040;-84
2023/06/10 11:12:51;;;;;;;8.00;2.55;;;;;;;-142.57;100.00;115900.28;5029872;28;20088;-84
2023/06/10 11:15:24;;;;;;;13.05;2.35;;;;;;;-142.57;100.00;115900.28;5026974;28;20455;-83